Time;durP1;ratioP1;P1;durP2;ratioP2;P2;SDS_P1;SDS_P2;PMS_P1;PMS_P2;Temp;Humidity;BMP_temperature;BMP_pressure;BME280_temperature;BME280_humidity;BME280_pressure;Samples;Min_cycle;Max_cycle;Signal;HPM_P1;HPM_P2
2021/06/23 00:00:33;;;;;;;19.27;15.32;;;17.30;99.90;;;;;;5019953;28;20553;-78
2021/06/23 00:02:58;;;;;;;21.40;16.33;;;16.50;99.90;;;;;;5031634;28;20048;-78
2021/06/23 00:05:24;;;;;;;18.98;15.50;;;16.50;99.90;;;;;;5057359;28;20059;-76
2021/06/23 00:07:50;;;;;;;19.50;16.98;;;16.20;99.90;;;;;;5039519;28;20025;-78
2021/06/23 00:10:17;;;;;;;20.92;15.57;;;16.50;99.90;;;;;;5056925;28;20030;-78
2021/06/23 00:12:43;;;;;;;21.48;14.90;;;16.40;99.90;;;;;;5048796;28;20029;-78
2021/06/23 00:15:11;;;;;;;21.67;15.77;;;16.30;99.90;;;;;;5037235;28;20025;-78
2021/06/23 00:17:37;;;;;;;21.65;16.98;;;16.30;99.90;;;;;;5020031;28;20017;-78
2021/06/23 00:20:05;;;;;;;20.25;16.10;;;16.30;99.90;;;;;;5018335;28;20040;-78
2021/06/23 00:22:30;;;;;;;20.15;15.95;;;16.20;99.90;;;;;;5027725;28;20028;-78
2021/06/23 00:24:56;;;;;;;19.88;15.98;;;16.20;99.90;;;;;;5054787;28;20029;-79
2021/06/23 00:27:21;;;;;;;19.98;16.23;;;16.10;99.90;;;;;;5053785;28;20033;-78
2021/06/23 00:29:47;;;;;;;22.45;16.85;;;16.10;99.90;;;;;;5037576;28;20042;-79
2021/06/23 00:32:15;;;;;;;21.25;17.52;;;16.20;99.90;;;;;;5017288;28;20036;-78
2021/06/23 00:34:41;;;;;;;25.17;18.30;;;16.10;99.90;;;;;;5020225;28;20068;-78
2021/06/23 00:37:07;;;;;;;26.23;18.08;;;16.20;99.90;;;;;;5038498;28;20036;-79
2021/06/23 00:39:33;;;;;;;22.25;16.73;;;16.40;99.90;;;;;;5041505;28;20049;-79
2021/06/23 00:41:59;;;;;;;23.45;17.73;;;16.30;99.90;;;;;;5041970;28;20199;-79
2021/06/23 00:44:25;;;;;;;22.65;17.20;;;16.20;99.90;;;;;;5043682;28;20124;-78
2021/06/23 00:46:52;;;;;;;21.25;17.60;;;16.20;99.90;;;;;;5061371;28;20477;-78
2021/06/23 00:49:18;;;;;;;23.48;18.67;;;16.30;99.90;;;;;;5060260;28;20552;-78
2021/06/23 00:51:45;;;;;;;25.10;17.58;;;16.60;99.90;;;;;;5060681;28;20033;-77
2021/06/23 00:54:13;;;;;;;22.58;16.98;;;16.40;99.90;;;;;;5020944;28;20026;-78
2021/06/23 00:56:39;;;;;;;23.98;18.52;;;16.50;99.90;;;;;;5038013;28;20097;-77
2021/06/23 00:59:07;;;;;;;26.65;17.80;;;16.50;99.90;;;;;;5036789;28;20033;-78
2021/06/23 01:01:35;;;;;;;21.48;17.70;;;16.30;99.90;;;;;;5036930;28;20029;-78
2021/06/23 01:04:01;;;;;;;19.58;15.70;;;16.60;99.90;;;;;;5037006;28;20037;-77
2021/06/23 01:06:28;;;;;;;24.90;18.02;;;16.40;99.90;;;;;;5039377;28;20033;-78
2021/06/23 01:08:54;;;;;;;18.67;14.55;;;16.70;99.90;;;;;;5057766;28;20094;-76
2021/06/23 01:11:21;;;;;;;21.15;15.52;;;16.50;99.90;;;;;;5040997;28;20523;-78
2021/06/23 01:13:58;;;;;;;20.55;15.02;;;16.60;99.90;;;;;;5040982;28;20029;-78
2021/06/23 01:16:27;;;;;;;16.38;13.48;;;16.50;99.90;;;;;;5041494;28;20089;-78
2021/06/23 01:18:53;;;;;;;15.90;13.30;;;16.70;99.90;;;;;;5040030;28;20390;-77
2021/06/23 01:21:19;;;;;;;17.60;13.85;;;16.70;99.90;;;;;;5039997;28;20049;-78
2021/06/23 01:23:45;;;;;;;17.02;14.70;;;16.70;99.90;;;;;;5020195;28;20058;-77
2021/06/23 01:26:10;;;;;;;17.13;13.23;;;16.70;99.90;;;;;;5054516;28;20572;-77
2021/06/23 01:28:36;;;;;;;23.60;14.25;;;16.80;99.90;;;;;;5023914;28;20039;-77
2021/06/23 01:31:03;;;;;;;22.65;14.55;;;16.80;99.90;;;;;;5037005;28;20052;-77
2021/06/23 01:33:29;;;;;;;18.92;13.20;;;16.70;99.90;;;;;;5034792;28;20079;-77
2021/06/23 01:35:56;;;;;;;20.27;12.93;;;16.70;99.90;;;;;;5054343;28;20033;-76
2021/06/23 01:38:22;;;;;;;15.95;12.73;;;16.80;99.90;;;;;;5059603;28;20531;-77
2021/06/23 01:40:49;;;;;;;19.98;12.23;;;16.80;99.90;;;;;;5056569;28;20537;-77
2021/06/23 01:43:14;;;;;;;16.10;12.48;;;16.90;99.90;;;;;;5056055;28;20032;-77
2021/06/23 01:45:44;;;;;;;17.98;11.88;;;17.20;99.90;;;;;;5055090;28;20029;-77
2021/06/23 01:48:10;;;;;;;19.40;12.80;;;17.10;99.90;;;;;;5036230;28;20033;-77
2021/06/23 19:52:04;;;;;;;4.40;3.58;;;;;;;;;;5107112;27;20146;-78
2021/06/23 19:54:30;;;;;;;6.82;4.00;;;;;;;;;;5108210;28;20016;-77
2021/06/23 19:56:56;;;;;;;6.40;4.30;;;;;;;;;;5088539;28;20082;-78
2021/06/23 19:59:22;;;;;;;4.85;3.85;;;;;;;;;;5085526;28;20472;-78
2021/06/23 20:01:48;;;;;;;6.05;3.92;;;;;;;;;;5090736;28;20022;-77
2021/06/23 20:04:14;;;;;;;6.85;4.78;;;;;;;;;;5089796;28;20079;-78
2021/06/23 20:06:40;;;;;;;6.97;4.85;;;;;;;;;;5089348;28;20048;-78
2021/06/23 20:09:06;;;;;;;10.25;6.55;;;;;;;;;;5086979;28;20021;-79
2021/06/23 20:11:32;;;;;;;8.00;5.28;;;;;;;;;;5086862;28;20031;-78
2021/06/23 20:13:59;;;;;;;10.63;5.07;;;;;;;;;;5090475;28;20036;-78
2021/06/23 20:16:25;;;;;;;7.97;4.45;;;;;;;;;;5093009;28;20028;-78
2021/06/23 20:18:51;;;;;;;6.53;4.30;;;;;;;;;;5090578;28;20029;-78
2021/06/23 20:21:17;;;;;;;7.10;3.65;;;;;;;;;;5092979;28;20035;-78
2021/06/23 20:23:44;;;;;;;8.73;3.50;;;;;;;;;;5091233;28;20036;-79
2021/06/23 20:26:10;;;;;;;8.35;3.33;;;;;;;;;;5093305;28;20025;-79
2021/06/23 20:28:36;;;;;;;7.53;2.80;;;;;;;;;;5084331;28;20048;-78
2021/06/23 20:31:03;;;;;;;3.55;2.13;;;;;;;;;;5085169;28;20032;-78
2021/06/23 20:33:29;;;;;;;4.18;3.00;;;;;;;;;;5086009;28;20020;-78
2021/06/23 20:35:56;;;;;;;5.40;2.75;;;;;;;;;;5087377;28;20021;-78
2021/06/23 20:38:22;;;;;;;4.10;2.40;;;;;;;;;;5085221;28;20023;-79
2021/06/23 20:40:49;;;;;;;5.80;2.78;;;;;;;;;;5085822;28;20035;-78
2021/06/23 20:43:15;;;;;;;7.55;3.13;;;;;;;;;;5087878;28;20165;-78
2021/06/23 20:45:41;;;;;;;5.63;2.63;;;;;;;;;;5083853;28;20452;-78
2021/06/23 20:48:07;;;;;;;11.18;3.08;;;;;;;;;;5086159;28;20062;-78
2021/06/23 20:50:34;;;;;;;4.47;2.50;;;;;;;;;;5086762;28;20145;-78
2021/06/23 20:53:00;;;;;;;7.60;2.83;;;;;;;;;;5088466;28;20024;-78
2021/06/23 20:55:33;;;;;;;9.40;2.58;;;;;;;;;;5087952;28;20028;-78
2021/06/23 20:58:00;;;;;;;5.45;2.67;;;;;;;;;;5087844;28;20557;-79
2021/06/23 21:00:27;;;;;;;6.57;2.42;;;;;;;;;;5087833;28;20036;-78
2021/06/23 21:02:54;;;;;;;12.43;3.15;;;;;;;;;;5076888;28;20044;-78
2021/06/23 21:05:21;;;;;;;7.47;2.88;;;;;;;;;;5074801;28;20052;-77
2021/06/23 21:07:50;;;;;;;9.73;3.53;;;;;;;;;;5074014;28;20040;-78
2021/06/23 21:10:16;;;;;;;9.05;3.38;;;;;;;;;;5070871;28;20802;-77
2021/06/23 21:12:49;;;;;;;3.60;2.88;;;;;;;;;;5075456;28;20025;-78
2021/06/23 21:15:15;;;;;;;6.82;3.45;;;;;;;;;;5076050;28;20509;-78
2021/06/23 21:17:41;;;;;;;4.55;2.90;;;;;;;;;;5077847;28;20131;-78
2021/06/23 21:20:08;;;;;;;4.13;3.00;;;;;;;;;;5076625;28;20025;-78
2021/06/23 21:22:35;;;;;;;4.90;3.05;;;;;;;;;;5077633;28;20029;-78
2021/06/23 21:25:09;;;;;;;4.63;2.97;;;;;;;;;;5077771;28;20481;-79
2021/06/23 21:27:38;;;;;;;4.68;3.20;;;;;;;;;;5077855;28;20028;-78
2021/06/23 21:30:05;;;;;;;5.85;3.70;;;;;;;;;;5078475;28;20501;-78
2021/06/23 21:32:31;;;;;;;5.18;3.55;;;;;;;;;;5077992;28;20071;-79
2021/06/23 21:35:08;;;;;;;6.28;3.30;;;;;;;;;;5078001;28;20048;-79
2021/06/23 21:37:37;;;;;;;5.85;3.60;;;;;;;;;;5078846;28;20013;-79
2021/06/23 21:40:19;;;;;;;7.82;3.55;;;;;;;;;;5078730;28;20095;-79
2021/06/23 21:43:12;;;;;;;4.88;3.20;;;;;;;;;;5079156;28;20028;-79
2021/06/23 21:45:38;;;;;;;;;;;;;;;;;;5076426;28;20045;-79
2021/06/23 21:48:21;;;;;;;4.50;3.60;;;;;;;;;;5079013;28;19968;-79
2021/06/23 21:50:51;;;;;;;4.72;3.42;;;;;;;;;;5077607;28;20063;-79
2021/06/23 21:53:18;;;;;;;4.95;3.60;;;;;;;;;;5078915;28;20028;-79
2021/06/23 21:55:44;;;;;;;3.88;3.40;;;;;;;;;;5079068;28;20064;-79
2021/06/23 21:58:14;;;;;;;4.20;3.63;;;;;;;;;;5076969;28;20051;-79
2021/06/23 22:00:50;;;;;;;5.65;3.67;;;;;;;;;;5078681;28;20029;-79
2021/06/23 22:03:17;;;;;;;4.72;3.50;;;;;;;;;;5078279;28;20494;-78
2021/06/23 22:05:57;;;;;;;5.65;3.63;;;;;;;;;;5078119;28;20055;-79
2021/06/23 22:08:33;;;;;;;7.18;3.67;;;;;;;;;;5077628;28;20025;-79
2021/06/23 22:10:59;;;;;;;6.15;3.78;;;;;;;;;;5079155;28;20028;-79
2021/06/23 22:13:27;;;;;;;4.78;3.75;;;;;;;;;;5077185;28;20477;-79
2021/06/23 22:16:00;;;;;;;6.63;4.35;;;;;;;;;;5076685;28;20060;-79
2021/06/23 22:18:26;;;;;;;6.22;4.13;;;;;;;;;;5078244;28;20036;-79
2021/06/23 22:20:52;;;;;;;7.38;3.83;;;;;;;;;;5077287;28;20029;-79
2021/06/23 22:23:20;;;;;;;8.30;5.32;;;;;;;;;;5078304;28;20040;-79
2021/06/23 22:25:53;;;;;;;8.65;4.38;;;;;;;;;;5078128;28;20500;-79
2021/06/23 22:28:22;;;;;;;7.13;4.13;;;;;;;;;;5077734;28;20028;-79
2021/06/23 22:30:58;;;;;;;6.50;4.60;;;;;;;;;;5077294;28;20020;-79
2021/06/23 22:33:25;;;;;;;11.05;5.38;;;;;;;;;;5077430;28;20095;-79
2021/06/23 22:35:54;;;;;;;16.70;6.45;;;;;;;;;;5078628;28;20032;-79
2021/06/23 22:38:20;;;;;;;11.32;5.70;;;;;;;;;;5077840;28;20029;-79
2021/06/23 22:40:59;;;;;;;8.75;5.20;;;;;;;;;;5078766;28;20029;-79
2021/06/23 22:43:30;;;;;;;16.95;6.68;;;;;;;;;;5078771;28;20054;-79
2021/06/23 22:45:59;;;;;;;9.73;6.80;;;;;;;;;;5077595;28;20123;-79
2021/06/23 22:49:16;;;;;;;8.13;6.60;;;;;;;;;;5077399;28;20039;-78
2021/06/23 22:51:36;;;;;;;8.85;6.55;;;;;;;;;;5072516;28;20056;-79
2021/06/23 22:56:44;;;;;;;12.57;7.00;;;;;;;;;;5085196;28;20215;-78
2021/06/23 22:59:10;;;;;;;8.52;6.57;;;;;;;;;;5078406;28;20028;-79
2021/06/23 23:01:36;;;;;;;9.30;5.72;;;;;;;;;;5077010;28;20034;-79
2021/06/23 23:04:04;;;;;;;10.23;5.95;;;;;;;;;;5076955;28;20099;-79
2021/06/23 23:06:31;;;;;;;6.82;5.72;;;;;;;;;;5076818;28;20031;-78
2021/06/23 23:09:18;;;;;;;8.15;5.65;;;;;;;;;;5076296;28;20067;-78
2021/06/23 23:11:45;;;;;;;6.47;5.28;;;;;;;;;;5077298;28;20035;-78
2021/06/23 23:14:12;;;;;;;7.35;5.65;;;;;;;;;;5076951;28;20025;-79
2021/06/23 23:16:39;;;;;;;9.15;5.05;;;;;;;;;;5076655;28;20115;-79
2021/06/23 23:19:05;;;;;;;11.98;4.60;;;;;;;;;;5075728;28;20035;-78
2021/06/23 23:21:31;;;;;;;5.95;5.30;;;;;;;;;;5077790;28;20024;-78
2021/06/23 23:23:57;;;;;;;13.15;5.38;;;;;;;;;;5080737;28;20027;-78
2021/06/23 23:26:23;;;;;;;6.93;6.07;;;;;;;;;;5079364;28;20033;-78
2021/06/23 23:28:49;;;;;;;6.15;5.55;;;;;;;;;;5075424;28;20036;-79
2021/06/23 23:31:16;;;;;;;6.38;5.53;;;;;;;;;;5071928;28;20024;-79
2021/06/23 23:33:42;;;;;;;7.28;5.38;;;;;;;;;;5074359;28;20025;-80
2021/06/23 23:36:08;;;;;;;10.00;5.40;;;;;;;;;;5076128;28;20032;-78
2021/06/23 23:38:34;;;;;;;7.07;5.68;;;;;;;;;;5075219;28;20028;-78
2021/06/23 23:41:00;;;;;;;6.97;5.47;;;;;;;;;;5075435;28;20028;-79
2021/06/23 23:43:26;;;;;;;7.97;5.07;;;;;;;;;;5076456;28;20055;-78
2021/06/23 23:45:52;;;;;;;9.10;5.10;;;;;;;;;;5073889;28;20032;-79
2021/06/23 23:48:18;;;;;;;8.23;5.22;;;;;;;;;;5073591;28;20056;-78
2021/06/23 23:50:44;;;;;;;5.72;5.03;;;;;;;;;;5072880;28;20063;-79
2021/06/23 23:53:10;;;;;;;7.35;5.35;;;;;;;;;;5073294;28;20056;-79
2021/06/23 23:55:50;;;;;;;11.30;5.70;;;;;;;;;;5076257;28;20046;-78
2021/06/23 23:58:21;;;;;;;9.07;5.30;;;;;;;;;;5074454;28;20028;-78
